createdAt,value
2023-02-19T00:10:08.235Z,4.00
2023-02-19T00:21:02.084Z,5.10
2023-02-19T00:31:34.885Z,5.22
2023-02-19T00:42:03.303Z,5.43
2023-02-19T00:52:48.976Z,5.40
2023-02-19T01:04:21.759Z,5.97
2023-02-19T01:14:11.252Z,5.28
2023-02-19T01:24:34.480Z,5.88
2023-02-19T01:34:58.138Z,5.65
2023-02-19T01:45:25.385Z,4.18
2023-02-19T01:55:51.891Z,5.63
2023-02-19T02:07:27.296Z,5.82
2023-02-19T02:17:59.005Z,3.63
2023-02-19T02:28:37.506Z,6.28
2023-02-19T02:39:03.386Z,4.85
2023-02-19T02:49:29.949Z,7.43
2023-02-19T03:00:28.451Z,6.40
2023-02-19T03:11:31.200Z,3.05
2023-02-19T03:22:28.518Z,4.53
2023-02-19T03:33:04.259Z,2.90
2023-02-19T03:43:47.336Z,4.50
2023-02-19T03:54:30.287Z,4.40
2023-02-19T04:04:59.852Z,3.25
2023-02-19T04:15:36.548Z,4.20
2023-02-19T04:26:16.645Z,3.05
2023-02-19T04:37:41.541Z,3.58
2023-02-19T04:47:43.625Z,1.90
2023-02-19T04:58:09.697Z,2.63
2023-02-19T05:08:51.073Z,2.40
2023-02-19T05:19:13.056Z,1.00
2023-02-19T05:29:51.530Z,1.75
2023-02-19T05:40:18.917Z,2.75
2023-02-19T05:50:46.840Z,2.53
2023-02-19T06:01:16.069Z,2.92
2023-02-19T06:11:39.407Z,1.95
2023-02-19T06:22:03.380Z,2.40
2023-02-19T06:32:28.795Z,3.33
2023-02-19T06:45:18.444Z,3.13
2023-02-19T06:54:34.593Z,7.20
2023-02-19T07:04:58.936Z,5.35
2023-02-19T07:15:31.593Z,7.30
2023-02-19T07:25:58.915Z,3.90
2023-02-19T07:36:43.211Z,3.40
2023-02-19T07:47:07.732Z,2.60
2023-02-19T07:58:30.926Z,1.90
2023-02-19T08:08:26.146Z,4.80
2023-02-19T08:18:49.718Z,3.10
2023-02-19T08:29:18.721Z,2.88
2023-02-19T08:39:50.090Z,2.72
2023-02-19T08:50:49.121Z,2.63
2023-02-19T09:02:16.845Z,2.03
2023-02-19T09:12:25.056Z,2.40
2023-02-19T09:23:07.061Z,3.05
2023-02-19T09:34:08.791Z,2.10
2023-02-19T09:44:45.056Z,2.35
2023-02-19T09:55:41.179Z,2.28
2023-02-19T10:06:19.343Z,2.28
2023-02-19T10:16:53.673Z,1.45
2023-02-19T10:27:23.357Z,1.60
2023-02-19T10:37:49.693Z,2.17
2023-02-19T10:59:38.425Z,1.73
2023-02-19T11:10:05.881Z,2.15
2023-02-19T11:20:45.319Z,1.40
2023-02-19T11:31:28.929Z,1.10
2023-02-19T11:42:17.952Z,1.50
2023-02-19T11:52:50.571Z,2.50
2023-02-19T12:03:38.646Z,1.45
2023-02-19T12:14:37.724Z,1.30
2023-02-19T12:25:30.398Z,1.73
2023-02-19T12:36:05.904Z,1.52
2023-02-19T12:46:46.961Z,1.48
2023-02-19T12:57:15.073Z,1.23
2023-02-19T13:07:46.967Z,1.17
2023-02-19T13:18:15.491Z,1.27
2023-02-19T13:28:54.245Z,1.50
2023-02-19T13:39:22.734Z,1.63
2023-02-19T13:49:53.487Z,1.30
2023-02-19T14:00:50.046Z,1.00
2023-02-19T14:11:18.429Z,1.10
2023-02-19T14:22:31.476Z,1.63
2023-02-19T14:33:11.028Z,1.30
2023-02-19T14:43:35.794Z,1.27
2023-02-19T14:54:00.178Z,1.27
2023-02-19T15:04:32.337Z,1.20
2023-02-19T15:14:58.079Z,1.17
2023-02-19T15:25:22.644Z,1.30
2023-02-19T15:35:51.274Z,1.13
2023-02-19T15:46:19.708Z,1.25
2023-02-19T15:56:48.086Z,1.00
2023-02-19T16:07:27.364Z,0.95
2023-02-19T16:17:50.869Z,1.50
2023-02-19T16:28:15.458Z,1.65
2023-02-19T16:38:39.381Z,1.63
2023-02-19T16:49:00.711Z,1.48
2023-02-19T16:59:23.484Z,1.42
2023-02-19T17:09:48.765Z,2.03
2023-02-19T17:20:22.402Z,2.53
2023-02-19T17:30:45.912Z,1.67
2023-02-19T17:41:10.847Z,1.83
2023-02-19T17:51:35.052Z,3.25
2023-02-19T18:02:10.805Z,3.35
2023-02-19T18:12:37.173Z,1.80
2023-02-19T18:23:06.177Z,2.67
2023-02-19T18:33:30.003Z,2.50
2023-02-19T18:44:27.289Z,1.90
2023-02-19T18:54:51.559Z,2.72
2023-02-19T19:05:14.360Z,3.38
2023-02-19T19:15:36.525Z,3.13
2023-02-19T19:25:59.637Z,3.60
2023-02-19T19:36:30.212Z,3.25
2023-02-19T19:46:56.502Z,3.08
2023-02-19T19:57:22.206Z,2.97
2023-02-19T20:08:10.162Z,3.75
2023-02-19T20:18:45.373Z,3.78
2023-02-19T20:30:01.348Z,2.70
2023-02-19T20:40:03.831Z,2.10
2023-02-19T20:50:40.244Z,1.30
2023-02-19T21:01:12.322Z,2.25
2023-02-19T21:11:48.148Z,3.00
2023-02-19T21:22:15.294Z,2.85
2023-02-19T21:32:39.075Z,2.53
2023-02-19T21:43:02.825Z,2.85
2023-02-19T21:53:50.563Z,2.85
2023-02-19T22:05:13.040Z,1.83
2023-02-19T22:15:38.164Z,2.92
2023-02-19T22:26:06.960Z,3.20
2023-02-19T22:36:36.109Z,2.85
2023-02-19T22:46:59.602Z,1.80
2023-02-19T22:58:03.584Z,2.78
2023-02-19T23:19:33.660Z,2.22
2023-02-19T23:30:00.862Z,1.80
2023-02-19T23:40:40.517Z,2.33
2023-02-19T23:51:36.309Z,2.85
